sensor_id;sensor_type;location;lat;lon;timestamp;pressure;altitude;pressure_sealevel;temperature;humidity
32456;BME280;18912;43.270;27.942;2022-09-06T00:00:36;98852.81;;;12.61;85.55
32456;BME280;18912;43.270;27.942;2022-09-06T00:03:02;98868.03;;;12.62;85.53
32456;BME280;18912;43.270;27.942;2022-09-06T00:05:30;98868.88;;;12.62;84.95
32456;BME280;18912;43.270;27.942;2022-09-06T00:08:00;98860.56;;;12.70;84.03
32456;BME280;18912;43.270;27.942;2022-09-06T00:10:26;98863.41;;;12.56;83.76
32456;BME280;18912;43.270;27.942;2022-09-06T00:12:52;98872.75;;;12.47;82.98
32456;BME280;18912;43.270;27.942;2022-09-06T00:15:17;98864.97;;;12.37;81.93
32456;BME280;18912;43.270;27.942;2022-09-06T00:17:43;98867.84;;;12.29;81.73
32456;BME280;18912;43.270;27.942;2022-09-06T00:20:09;98862.63;;;12.28;81.62
32456;BME280;18912;43.270;27.942;2022-09-06T00:22:35;98863.63;;;12.20;81.99
32456;BME280;18912;43.270;27.942;2022-09-06T00:25:02;98865.72;;;12.18;82.48
32456;BME280;18912;43.270;27.942;2022-09-06T00:27:28;98856.47;;;12.06;82.89
32456;BME280;18912;43.270;27.942;2022-09-06T00:29:54;98860.63;;;12.02;83.39
32456;BME280;18912;43.270;27.942;2022-09-06T00:32:19;98857.94;;;12.08;83.73
32456;BME280;18912;43.270;27.942;2022-09-06T00:34:45;98854.41;;;12.08;83.85
32456;BME280;18912;43.270;27.942;2022-09-06T00:37:10;98863.97;;;12.04;84.45
32456;BME280;18912;43.270;27.942;2022-09-06T00:39:36;98858.09;;;12.00;84.79
32456;BME280;18912;43.270;27.942;2022-09-06T00:42:01;98860.00;;;12.06;84.58
32456;BME280;18912;43.270;27.942;2022-09-06T00:44:27;98854.16;;;12.03;84.43
32456;BME280;18912;43.270;27.942;2022-09-06T00:46:53;98859.97;;;12.00;84.01
32456;BME280;18912;43.270;27.942;2022-09-06T00:49:26;98855.19;;;12.02;83.27
32456;BME280;18912;43.270;27.942;2022-09-06T00:52:13;98857.69;;;12.03;82.66
32456;BME280;18912;43.270;27.942;2022-09-06T00:54:39;98859.03;;;11.86;82.79
32456;BME280;18912;43.270;27.942;2022-09-06T00:57:05;98852.75;;;11.79;82.77
32456;BME280;18912;43.270;27.942;2022-09-06T00:59:33;98857.69;;;11.76;82.87
32456;BME280;18912;43.270;27.942;2022-09-06T01:02:00;98853.84;;;11.64;83.83
32456;BME280;18912;43.270;27.942;2022-09-06T01:04:26;98860.38;;;11.69;84.11
32456;BME280;18912;43.270;27.942;2022-09-06T01:07:19;98864.56;;;11.72;84.63
32456;BME280;18912;43.270;27.942;2022-09-06T01:10:12;98861.97;;;11.64;84.96
32456;BME280;18912;43.270;27.942;2022-09-06T01:15:33;98870.78;;;11.72;84.78
32456;BME280;18912;43.270;27.942;2022-09-06T01:21:27;98868.50;;;11.69;84.89
32456;BME280;18912;43.270;27.942;2022-09-06T01:32:26;98876.50;;;11.63;83.87
32456;BME280;18912;43.270;27.942;2022-09-06T01:37:54;98863.94;;;11.55;83.33
32456;BME280;18912;43.270;27.942;2022-09-06T01:40:21;98871.00;;;11.50;83.49
32456;BME280;18912;43.270;27.942;2022-09-06T01:42:47;98869.34;;;11.49;83.06
32456;BME280;18912;43.270;27.942;2022-09-06T01:45:17;98867.91;;;11.32;83.98
32456;BME280;18912;43.270;27.942;2022-09-06T01:48:12;98864.56;;;11.29;85.23
32456;BME280;18912;43.270;27.942;2022-09-06T01:51:33;98862.63;;;11.23;85.88
32456;BME280;18912;43.270;27.942;2022-09-06T01:53:35;98857.66;;;11.27;85.76
32456;BME280;18912;43.270;27.942;2022-09-06T02:01:57;98855.16;;;11.47;85.63
32456;BME280;18912;43.270;27.942;2022-09-06T02:04:28;98853.44;;;11.46;85.92
32456;BME280;18912;43.270;27.942;2022-09-06T02:07:19;98848.56;;;11.35;86.10
32456;BME280;18912;43.270;27.942;2022-09-06T02:09:51;98851.34;;;11.41;85.64
32456;BME280;18912;43.270;27.942;2022-09-06T02:12:19;98845.09;;;11.41;85.47
32456;BME280;18912;43.270;27.942;2022-09-06T02:17:18;98850.91;;;11.38;85.07
32456;BME280;18912;43.270;27.942;2022-09-06T02:19:49;98834.84;;;11.36;84.90
32456;BME280;18912;43.270;27.942;2022-09-06T02:22:20;98838.03;;;11.40;83.92
32456;BME280;18912;43.270;27.942;2022-09-06T02:24:50;98835.47;;;11.38;84.26
32456;BME280;18912;43.270;27.942;2022-09-06T02:27:17;98833.31;;;11.27;85.07
32456;BME280;18912;43.270;27.942;2022-09-06T02:29:43;98838.78;;;11.34;85.56
32456;BME280;18912;43.270;27.942;2022-09-06T02:32:22;98828.28;;;11.24;85.47
32456;BME280;18912;43.270;27.942;2022-09-06T02:34:54;98827.44;;;11.23;84.90
32456;BME280;18912;43.270;27.942;2022-09-06T02:37:23;98829.94;;;11.25;84.57
32456;BME280;18912;43.270;27.942;2022-09-06T02:39:51;98827.56;;;11.15;85.04
32456;BME280;18912;43.270;27.942;2022-09-06T02:42:16;98824.50;;;11.18;84.74
32456;BME280;18912;43.270;27.942;2022-09-06T02:44:42;98825.16;;;11.20;84.16
32456;BME280;18912;43.270;27.942;2022-09-06T02:47:08;98827.66;;;11.22;83.24
32456;BME280;18912;43.270;27.942;2022-09-06T02:49:33;98835.66;;;11.09;83.28
32456;BME280;18912;43.270;27.942;2022-09-06T02:51:59;98833.94;;;11.08;83.42
32456;BME280;18912;43.270;27.942;2022-09-06T02:54:24;98831.84;;;11.03;83.83
32456;BME280;18912;43.270;27.942;2022-09-06T02:56:50;98829.72;;;10.99;84.24
32456;BME280;18912;43.270;27.942;2022-09-06T02:59:15;98828.97;;;10.90;86.27
32456;BME280;18912;43.270;27.942;2022-09-06T03:01:41;98828.81;;;10.92;86.09
32456;BME280;18912;43.270;27.942;2022-09-06T03:04:06;98830.09;;;10.96;85.79
32456;BME280;18912;43.270;27.942;2022-09-06T03:06:33;98826.75;;;10.94;85.47
32456;BME280;18912;43.270;27.942;2022-09-06T03:08:58;98821.00;;;10.82;85.76
32456;BME280;18912;43.270;27.942;2022-09-06T03:11:25;98830.41;;;10.86;85.22
32456;BME280;18912;43.270;27.942;2022-09-06T03:13:50;98823.06;;;10.80;85.10
32456;BME280;18912;43.270;27.942;2022-09-06T03:16:17;98835.28;;;10.76;85.72
32456;BME280;18912;43.270;27.942;2022-09-06T03:18:43;98837.22;;;10.82;85.27
32456;BME280;18912;43.270;27.942;2022-09-06T03:21:08;98834.06;;;10.79;84.98
32456;BME280;18912;43.270;27.942;2022-09-06T03:23:34;98831.69;;;10.90;84.18
32456;BME280;18912;43.270;27.942;2022-09-06T03:25:59;98828.72;;;10.85;84.19
32456;BME280;18912;43.270;27.942;2022-09-06T03:28:25;98834.53;;;10.82;84.59
32456;BME280;18912;43.270;27.942;2022-09-06T03:30:52;98827.44;;;10.81;84.54
32456;BME280;18912;43.270;27.942;2022-09-06T03:33:18;98837.28;;;10.89;84.65
32456;BME280;18912;43.270;27.942;2022-09-06T03:35:51;98836.28;;;10.90;84.18
32456;BME280;18912;43.270;27.942;2022-09-06T03:38:17;98841.03;;;10.88;84.28
32456;BME280;18912;43.270;27.942;2022-09-06T03:40:47;98831.44;;;10.85;84.12
32456;BME280;18912;43.270;27.942;2022-09-06T03:43:13;98835.69;;;10.94;83.47
32456;BME280;18912;43.270;27.942;2022-09-06T03:45:39;98836.31;;;10.96;82.11
32456;BME280;18912;43.270;27.942;2022-09-06T03:48:04;98830.41;;;10.86;82.52
32456;BME280;18912;43.270;27.942;2022-09-06T03:50:30;98836.06;;;10.91;81.74
32456;BME280;18912;43.270;27.942;2022-09-06T03:52:55;98836.06;;;10.91;82.46
32456;BME280;18912;43.270;27.942;2022-09-06T03:55:21;98836.84;;;10.85;83.22
32456;BME280;18912;43.270;27.942;2022-09-06T03:57:46;98839.94;;;10.82;84.52
32456;BME280;18912;43.270;27.942;2022-09-06T04:00:12;98838.69;;;10.85;86.00
32456;BME280;18912;43.270;27.942;2022-09-06T04:02:38;98839.88;;;10.97;86.72
32456;BME280;18912;43.270;27.942;2022-09-06T04:05:03;98843.22;;;10.99;87.46
32456;BME280;18912;43.270;27.942;2022-09-06T04:07:29;98835.25;;;11.12;88.73
32456;BME280;18912;43.270;27.942;2022-09-06T04:09:54;98838.06;;;11.25;88.54
32456;BME280;18912;43.270;27.942;2022-09-06T04:12:20;98842.16;;;11.36;88.93
32456;BME280;18912;43.270;27.942;2022-09-06T04:14:45;98851.84;;;11.51;88.75
32456;BME280;18912;43.270;27.942;2022-09-06T04:17:11;98847.13;;;11.60;88.77
32456;BME280;18912;43.270;27.942;2022-09-06T04:19:38;98852.28;;;11.76;88.69
32456;BME280;18912;43.270;27.942;2022-09-06T04:22:03;98838.16;;;11.80;88.93
32456;BME280;18912;43.270;27.942;2022-09-06T04:24:29;98847.72;;;12.04;88.83
32456;BME280;18912;43.270;27.942;2022-09-06T04:26:54;98844.88;;;12.18;88.50
32456;BME280;18912;43.270;27.942;2022-09-06T04:29:20;98852.47;;;12.36;88.89
32456;BME280;18912;43.270;27.942;2022-09-06T04:31:45;98844.63;;;12.48;89.29
32456;BME280;18912;43.270;27.942;2022-09-06T04:34:11;98847.81;;;12.64;89.27
32456;BME280;18912;43.270;27.942;2022-09-06T04:36:36;98848.94;;;12.89;89.27
32456;BME280;18912;43.270;27.942;2022-09-06T04:39:02;98841.06;;;13.01;88.90
32456;BME280;18912;43.270;27.942;2022-09-06T04:41:27;98848.63;;;13.19;88.52
32456;BME280;18912;43.270;27.942;2022-09-06T04:43:53;98847.38;;;13.34;88.43
32456;BME280;18912;43.270;27.942;2022-09-06T04:46:25;98844.47;;;13.55;89.11
32456;BME280;18912;43.270;27.942;2022-09-06T04:48:52;98851.19;;;13.79;88.69
32456;BME280;18912;43.270;27.942;2022-09-06T04:51:19;98851.16;;;14.05;88.79
32456;BME280;18912;43.270;27.942;2022-09-06T04:53:45;98850.91;;;14.20;89.00
32456;BME280;18912;43.270;27.942;2022-09-06T04:56:14;98850.25;;;14.44;88.82
32456;BME280;18912;43.270;27.942;2022-09-06T04:58:41;98840.34;;;14.62;88.57
32456;BME280;18912;43.270;27.942;2022-09-06T05:01:07;98840.47;;;14.80;88.20
32456;BME280;18912;43.270;27.942;2022-09-06T05:03:32;98841.22;;;15.01;87.94
32456;BME280;18912;43.270;27.942;2022-09-06T05:06:13;98838.94;;;15.29;87.30
32456;BME280;18912;43.270;27.942;2022-09-06T05:08:42;98838.34;;;15.58;86.70
32456;BME280;18912;43.270;27.942;2022-09-06T05:11:08;98853.66;;;15.83;85.52
32456;BME280;18912;43.270;27.942;2022-09-06T05:13:35;98842.97;;;16.07;85.17
32456;BME280;18912;43.270;27.942;2022-09-06T05:16:02;98848.97;;;16.33;84.85
32456;BME280;18912;43.270;27.942;2022-09-06T05:18:28;98848.41;;;16.49;85.15
32456;BME280;18912;43.270;27.942;2022-09-06T05:20:54;98855.09;;;16.71;84.99
32456;BME280;18912;43.270;27.942;2022-09-06T05:23:20;98854.13;;;16.96;84.62
32456;BME280;18912;43.270;27.942;2022-09-06T05:25:46;98852.44;;;17.13;84.32
32456;BME280;18912;43.270;27.942;2022-09-06T05:28:12;98861.44;;;17.43;83.71
32456;BME280;18912;43.270;27.942;2022-09-06T05:30:37;98861.56;;;17.66;82.71
32456;BME280;18912;43.270;27.942;2022-09-06T05:33:03;98864.19;;;17.84;81.98
32456;BME280;18912;43.270;27.942;2022-09-06T05:35:28;98858.41;;;18.15;81.67
32456;BME280;18912;43.270;27.942;2022-09-06T05:37:54;98864.69;;;18.39;81.09
32456;BME280;18912;43.270;27.942;2022-09-06T05:40:19;98862.28;;;18.77;80.21
32456;BME280;18912;43.270;27.942;2022-09-06T05:42:44;98868.25;;;19.14;79.06
32456;BME280;18912;43.270;27.942;2022-09-06T05:45:10;98861.81;;;19.48;77.42
32456;BME280;18912;43.270;27.942;2022-09-06T05:47:35;98852.31;;;19.84;71.47
32456;BME280;18912;43.270;27.942;2022-09-06T05:50:02;98861.56;;;20.27;69.78
32456;BME280;18912;43.270;27.942;2022-09-06T05:52:31;98858.06;;;20.70;65.53
32456;BME280;18912;43.270;27.942;2022-09-06T05:54:59;98858.13;;;21.18;63.89
32456;BME280;18912;43.270;27.942;2022-09-06T05:57:25;98861.34;;;21.59;60.28
32456;BME280;18912;43.270;27.942;2022-09-06T05:59:50;98858.25;;;22.08;58.10
32456;BME280;18912;43.270;27.942;2022-09-06T06:02:21;98869.06;;;22.57;57.01
32456;BME280;18912;43.270;27.942;2022-09-06T06:04:47;98873.16;;;22.96;54.07
32456;BME280;18912;43.270;27.942;2022-09-06T06:07:13;98871.16;;;23.38;53.56
32456;BME280;18912;43.270;27.942;2022-09-06T06:09:39;98861.28;;;23.67;51.78
32456;BME280;18912;43.270;27.942;2022-09-06T06:12:05;98871.84;;;24.11;50.41
32456;BME280;18912;43.270;27.942;2022-09-06T06:14:31;98872.38;;;24.38;47.87
32456;BME280;18912;43.270;27.942;2022-09-06T06:16:56;98870.13;;;24.65;44.77
32456;BME280;18912;43.270;27.942;2022-09-06T06:19:22;98864.03;;;24.78;44.95
32456;BME280;18912;43.270;27.942;2022-09-06T06:21:47;98868.91;;;25.06;44.41
32456;BME280;18912;43.270;27.942;2022-09-06T06:24:13;98866.63;;;25.28;42.43
32456;BME280;18912;43.270;27.942;2022-09-06T06:26:38;98873.41;;;25.56;43.49
32456;BME280;18912;43.270;27.942;2022-09-06T06:29:05;98875.53;;;25.74;42.38
32456;BME280;18912;43.270;27.942;2022-09-06T06:31:34;98873.38;;;26.00;41.20
32456;BME280;18912;43.270;27.942;2022-09-06T06:34:00;98878.31;;;26.13;40.00
32456;BME280;18912;43.270;27.942;2022-09-06T06:36:31;98875.53;;;26.13;38.30
32456;BME280;18912;43.270;27.942;2022-09-06T06:38:58;98870.09;;;26.31;39.49
32456;BME280;18912;43.270;27.942;2022-09-06T06:41:26;98870.09;;;26.60;38.07
32456;BME280;18912;43.270;27.942;2022-09-06T06:43:57;98875.88;;;26.92;37.50
32456;BME280;18912;43.270;27.942;2022-09-06T06:46:24;98876.31;;;27.04;37.93
32456;BME280;18912;43.270;27.942;2022-09-06T06:48:50;98880.88;;;26.95;38.39
32456;BME280;18912;43.270;27.942;2022-09-06T06:51:19;98882.50;;;27.43;37.87
32456;BME280;18912;43.270;27.942;2022-09-06T06:53:45;98891.75;;;27.39;37.21
32456;BME280;18912;43.270;27.942;2022-09-06T06:56:47;98872.31;;;27.57;36.34
32456;BME280;18912;43.270;27.942;2022-09-06T06:59:12;98886.38;;;27.85;36.29
32456;BME280;18912;43.270;27.942;2022-09-06T07:01:38;98882.88;;;27.98;35.38
32456;BME280;18912;43.270;27.942;2022-09-06T07:04:04;98882.69;;;28.08;35.13
32456;BME280;18912;43.270;27.942;2022-09-06T07:06:45;98882.63;;;28.13;35.58
32456;BME280;18912;43.270;27.942;2022-09-06T07:09:10;98886.50;;;28.30;34.43
32456;BME280;18912;43.270;27.942;2022-09-06T07:11:35;98880.28;;;28.52;34.67
32456;BME280;18912;43.270;27.942;2022-09-06T07:14:01;98879.44;;;28.97;34.04
32456;BME280;18912;43.270;27.942;2022-09-06T07:16:26;98885.84;;;28.98;34.70
32456;BME280;18912;43.270;27.942;2022-09-06T07:18:54;98882.22;;;28.84;34.09
32456;BME280;18912;43.270;27.942;2022-09-06T07:21:22;98889.03;;;28.91;34.65
32456;BME280;18912;43.270;27.942;2022-09-06T07:23:51;98886.09;;;29.15;34.56
32456;BME280;18912;43.270;27.942;2022-09-06T07:26:20;98885.69;;;29.21;34.21
32456;BME280;18912;43.270;27.942;2022-09-06T07:28:46;98898.84;;;29.43;33.59
32456;BME280;18912;43.270;27.942;2022-09-06T07:31:12;98892.22;;;29.80;32.66
32456;BME280;18912;43.270;27.942;2022-09-06T07:33:38;98897.09;;;29.74;33.63
32456;BME280;18912;43.270;27.942;2022-09-06T07:36:06;98900.75;;;29.97;33.06
32456;BME280;18912;43.270;27.942;2022-09-06T07:38:33;98889.50;;;30.24;32.54
32456;BME280;18912;43.270;27.942;2022-09-06T07:41:00;98891.88;;;30.17;31.93
32456;BME280;18912;43.270;27.942;2022-09-06T07:43:27;98899.81;;;30.01;32.04
32456;BME280;18912;43.270;27.942;2022-09-06T07:46:03;98893.34;;;30.28;32.60
32456;BME280;18912;43.270;27.942;2022-09-06T07:48:30;98903.59;;;30.41;31.75
32456;BME280;18912;43.270;27.942;2022-09-06T07:51:22;98909.50;;;30.62;30.84
32456;BME280;18912;43.270;27.942;2022-09-06T07:53:52;98894.94;;;30.73;31.37
32456;BME280;18912;43.270;27.942;2022-09-06T07:56:20;98897.94;;;30.55;31.24
32456;BME280;18912;43.270;27.942;2022-09-06T07:58:47;98895.88;;;30.60;30.84
32456;BME280;18912;43.270;27.942;2022-09-06T08:03:58;98894.59;;;30.44;30.96
32456;BME280;18912;43.270;27.942;2022-09-06T08:06:26;98898.91;;;30.50;31.20
32456;BME280;18912;43.270;27.942;2022-09-06T08:08:52;98895.50;;;30.31;30.98
32456;BME280;18912;43.270;27.942;2022-09-06T08:11:18;98900.59;;;29.80;31.67
32456;BME280;18912;43.270;27.942;2022-09-06T08:13:47;98901.31;;;29.44;32.09
32456;BME280;18912;43.270;27.942;2022-09-06T08:16:13;98896.91;;;29.71;31.48
32456;BME280;18912;43.270;27.942;2022-09-06T08:18:41;98903.31;;;30.07;31.41
32456;BME280;18912;43.270;27.942;2022-09-06T08:21:12;98899.94;;;29.69;31.48
32456;BME280;18912;43.270;27.942;2022-09-06T08:23:39;98899.09;;;29.19;32.59
32456;BME280;18912;43.270;27.942;2022-09-06T08:26:07;98887.22;;;28.54;33.55
32456;BME280;18912;43.270;27.942;2022-09-06T08:28:33;98891.84;;;28.08;34.33
32456;BME280;18912;43.270;27.942;2022-09-06T08:31:06;98892.88;;;28.31;34.85
32456;BME280;18912;43.270;27.942;2022-09-06T08:33:32;98880.75;;;28.08;35.13
32456;BME280;18912;43.270;27.942;2022-09-06T08:35:57;98882.31;;;28.46;35.02
32456;BME280;18912;43.270;27.942;2022-09-06T08:38:23;98872.47;;;27.85;35.00
32456;BME280;18912;43.270;27.942;2022-09-06T08:40:53;98873.81;;;27.87;35.22
32456;BME280;18912;43.270;27.942;2022-09-06T08:43:21;98870.53;;;28.54;34.78
32456;BME280;18912;43.270;27.942;2022-09-06T08:45:49;98869.34;;;29.01;33.84
32456;BME280;18912;43.270;27.942;2022-09-06T08:48:17;98879.31;;;28.75;34.48
32456;BME280;18912;43.270;27.942;2022-09-06T08:50:49;98886.88;;;28.24;34.52
32456;BME280;18912;43.270;27.942;2022-09-06T08:53:19;98880.75;;;28.40;34.10
32456;BME280;18912;43.270;27.942;2022-09-06T08:56:12;98886.28;;;27.52;36.14
32456;BME280;18912;43.270;27.942;2022-09-06T08:59:01;98881.34;;;27.87;35.47
32456;BME280;18912;43.270;27.942;2022-09-06T09:02:33;98867.50;;;27.82;35.67
32456;BME280;18912;43.270;27.942;2022-09-06T09:04:30;98874.19;;;28.50;34.17
32456;BME280;18912;43.270;27.942;2022-09-06T09:07:12;98866.63;;;28.69;34.30
32456;BME280;18912;43.270;27.942;2022-09-06T09:09:41;98864.91;;;28.41;34.24
32456;BME280;18912;43.270;27.942;2022-09-06T09:12:07;98853.88;;;28.68;34.07
32456;BME280;18912;43.270;27.942;2022-09-06T09:14:38;98859.78;;;29.21;33.02
32456;BME280;18912;43.270;27.942;2022-09-06T09:17:26;98851.59;;;28.56;34.40
32456;BME280;18912;43.270;27.942;2022-09-06T09:19:54;98857.47;;;28.55;33.30
32456;BME280;18912;43.270;27.942;2022-09-06T09:22:21;98851.09;;;28.68;34.22
32456;BME280;18912;43.270;27.942;2022-09-06T09:24:48;98858.28;;;28.37;34.07
32456;BME280;18912;43.270;27.942;2022-09-06T09:27:20;98837.88;;;28.28;34.26
32456;BME280;18912;43.270;27.942;2022-09-06T09:35:19;98831.19;;;28.61;33.95
32456;BME280;18912;43.270;27.942;2022-09-06T09:37:46;98831.75;;;29.67;32.34
32456;BME280;18912;43.270;27.942;2022-09-06T09:42:51;98832.97;;;29.11;33.81
32456;BME280;18912;43.270;27.942;2022-09-06T09:45:25;98841.03;;;28.40;34.58
32456;BME280;18912;43.270;27.942;2022-09-06T09:47:52;98828.53;;;28.83;35.29
32456;BME280;18912;43.270;27.942;2022-09-06T09:50:35;98830.94;;;28.12;36.24
32456;BME280;18912;43.270;27.942;2022-09-06T09:53:13;98841.59;;;27.07;37.37
32456;BME280;18912;43.270;27.942;2022-09-06T09:55:40;98837.03;;;26.11;38.79
32456;BME280;18912;43.270;27.942;2022-09-06T09:58:07;98836.59;;;26.85;38.44
32456;BME280;18912;43.270;27.942;2022-09-06T10:00:41;98830.84;;;27.00;37.26
32456;BME280;18912;43.270;27.942;2022-09-06T10:03:23;98829.28;;;27.36;37.46
32456;BME280;18912;43.270;27.942;2022-09-06T10:05:55;98836.44;;;27.42;36.83
32456;BME280;18912;43.270;27.942;2022-09-06T10:08:24;98825.84;;;27.63;36.63
32456;BME280;18912;43.270;27.942;2022-09-06T10:10:50;98833.28;;;26.83;38.26
32456;BME280;18912;43.270;27.942;2022-09-06T10:13:26;98830.13;;;26.37;39.62
32456;BME280;18912;43.270;27.942;2022-09-06T10:15:54;98831.81;;;26.38;40.77
32456;BME280;18912;43.270;27.942;2022-09-06T10:18:38;98825.56;;;25.50;41.67
32456;BME280;18912;43.270;27.942;2022-09-06T10:21:14;98820.53;;;24.98;42.63
32456;BME280;18912;43.270;27.942;2022-09-06T10:29:07;98802.88;;;24.89;43.80
32456;BME280;18912;43.270;27.942;2022-09-06T10:39:57;98797.94;;;24.81;43.39
32456;BME280;18912;43.270;27.942;2022-09-06T10:42:32;98794.91;;;24.68;43.15
32456;BME280;18912;43.270;27.942;2022-09-06T10:45:25;98792.47;;;24.51;42.98
32456;BME280;18912;43.270;27.942;2022-09-06T10:51:03;98784.84;;;25.02;41.37
32456;BME280;18912;43.270;27.942;2022-09-06T10:53:45;98783.00;;;25.41;41.22
32456;BME280;18912;43.270;27.942;2022-09-06T11:04:36;98791.66;;;24.51;40.99
32456;BME280;18912;43.270;27.942;2022-09-06T11:09:55;98784.47;;;24.50;41.29
32456;BME280;18912;43.270;27.942;2022-09-06T11:12:36;98780.47;;;24.91;40.41
32456;BME280;18912;43.270;27.942;2022-09-06T11:15:05;98784.97;;;24.67;41.49
32456;BME280;18912;43.270;27.942;2022-09-06T11:17:48;98780.13;;;24.14;41.66
32456;BME280;18912;43.270;27.942;2022-09-06T11:20:33;98780.41;;;24.27;41.13
32456;BME280;18912;43.270;27.942;2022-09-06T11:24:05;98775.31;;;24.64;41.11
32456;BME280;18912;43.270;27.942;2022-09-06T11:29:03;98782.25;;;24.52;40.68
32456;BME280;18912;43.270;27.942;2022-09-06T11:31:32;98765.97;;;24.50;40.84
32456;BME280;18912;43.270;27.942;2022-09-06T11:34:05;98765.69;;;24.47;40.46
32456;BME280;18912;43.270;27.942;2022-09-06T11:36:37;98762.19;;;24.06;41.18
32456;BME280;18912;43.270;27.942;2022-09-06T11:39:06;98771.19;;;24.47;41.29
32456;BME280;18912;43.270;27.942;2022-09-06T11:41:38;98773.72;;;24.48;40.88
32456;BME280;18912;43.270;27.942;2022-09-06T11:44:06;98770.66;;;24.50;41.03
32456;BME280;18912;43.270;27.942;2022-09-06T11:49:05;98759.66;;;24.30;41.11
32456;BME280;18912;43.270;27.942;2022-09-06T12:07:34;98742.59;;;24.07;40.85
32456;BME280;18912;43.270;27.942;2022-09-06T12:10:01;98755.78;;;24.31;39.95
32456;BME280;18912;43.270;27.942;2022-09-06T12:12:41;98765.16;;;24.30;39.93
32456;BME280;18912;43.270;27.942;2022-09-06T12:15:28;98757.75;;;24.25;40.25
32456;BME280;18912;43.270;27.942;2022-09-06T12:17:55;98750.31;;;24.00;40.20
32456;BME280;18912;43.270;27.942;2022-09-06T12:28:41;98744.78;;;23.30;42.02
32456;BME280;18912;43.270;27.942;2022-09-06T12:31:43;98735.16;;;23.48;42.39
32456;BME280;18912;43.270;27.942;2022-09-06T12:34:16;98740.09;;;23.71;41.12
32456;BME280;18912;43.270;27.942;2022-09-06T12:37:05;98748.66;;;23.79;42.55
32456;BME280;18912;43.270;27.942;2022-09-06T12:39:32;98751.13;;;23.56;43.49
32456;BME280;18912;43.270;27.942;2022-09-06T12:42:11;98742.03;;;23.60;43.43
32456;BME280;18912;43.270;27.942;2022-09-06T12:44:42;98753.00;;;23.20;43.61
32456;BME280;18912;43.270;27.942;2022-09-06T12:47:29;98746.16;;;23.73;42.49
32456;BME280;18912;43.270;27.942;2022-09-06T12:52:46;98742.06;;;23.55;43.49
32456;BME280;18912;43.270;27.942;2022-09-06T12:55:19;98749.19;;;23.46;41.44
32456;BME280;18912;43.270;27.942;2022-09-06T12:57:48;98742.88;;;23.51;40.73
32456;BME280;18912;43.270;27.942;2022-09-06T13:00:16;98739.25;;;23.35;42.41
32456;BME280;18912;43.270;27.942;2022-09-06T13:03:11;98734.50;;;23.05;43.55
32456;BME280;18912;43.270;27.942;2022-09-06T13:05:41;98738.09;;;23.11;43.88
32456;BME280;18912;43.270;27.942;2022-09-06T13:08:14;98742.59;;;23.32;43.69
32456;BME280;18912;43.270;27.942;2022-09-06T13:10:44;98732.09;;;23.39;44.03
32456;BME280;18912;43.270;27.942;2022-09-06T13:13:10;98728.72;;;23.22;43.06
32456;BME280;18912;43.270;27.942;2022-09-06T13:15:45;98719.97;;;23.45;44.11
32456;BME280;18912;43.270;27.942;2022-09-06T13:21:05;98729.03;;;23.20;44.17
32456;BME280;18912;43.270;27.942;2022-09-06T13:23:43;98732.88;;;23.25;44.80
32456;BME280;18912;43.270;27.942;2022-09-06T13:26:09;98720.47;;;23.27;45.38
32456;BME280;18912;43.270;27.942;2022-09-06T13:28:35;98715.84;;;23.33;45.29
32456;BME280;18912;43.270;27.942;2022-09-06T13:33:28;98721.16;;;22.67;45.98
32456;BME280;18912;43.270;27.942;2022-09-06T13:38:38;98723.72;;;22.89;44.42
32456;BME280;18912;43.270;27.942;2022-09-06T13:44:00;98719.81;;;22.75;45.09
32456;BME280;18912;43.270;27.942;2022-09-06T13:46:27;98712.09;;;22.77;43.43
32456;BME280;18912;43.270;27.942;2022-09-06T13:48:56;98718.66;;;22.61;43.69
32456;BME280;18912;43.270;27.942;2022-09-06T13:51:22;98715.94;;;22.66;43.26
32456;BME280;18912;43.270;27.942;2022-09-06T13:53:48;98717.19;;;22.48;43.03
32456;BME280;18912;43.270;27.942;2022-09-06T13:56:14;98723.53;;;22.49;41.62
32456;BME280;18912;43.270;27.942;2022-09-06T13:58:41;98711.81;;;22.73;41.64
32456;BME280;18912;43.270;27.942;2022-09-06T14:01:08;98707.03;;;22.54;41.64
32456;BME280;18912;43.270;27.942;2022-09-06T14:03:33;98721.44;;;22.66;41.26
32456;BME280;18912;43.270;27.942;2022-09-06T14:05:59;98710.41;;;22.66;40.86
32456;BME280;18912;43.270;27.942;2022-09-06T14:08:26;98705.06;;;22.49;40.86
32456;BME280;18912;43.270;27.942;2022-09-06T14:10:52;98710.00;;;22.37;40.86
32456;BME280;18912;43.270;27.942;2022-09-06T14:13:19;98713.53;;;22.27;39.57
32456;BME280;18912;43.270;27.942;2022-09-06T14:15:46;98716.34;;;22.43;39.74
32456;BME280;18912;43.270;27.942;2022-09-06T14:18:12;98701.59;;;22.64;39.52
32456;BME280;18912;43.270;27.942;2022-09-06T14:20:38;98719.34;;;22.36;40.30
32456;BME280;18912;43.270;27.942;2022-09-06T14:23:04;98715.38;;;22.17;40.25
32456;BME280;18912;43.270;27.942;2022-09-06T14:25:33;98704.22;;;22.39;39.77
32456;BME280;18912;43.270;27.942;2022-09-06T14:27:59;98710.44;;;22.19;40.94
32456;BME280;18912;43.270;27.942;2022-09-06T14:30:25;98712.91;;;22.15;42.53
32456;BME280;18912;43.270;27.942;2022-09-06T14:32:50;98709.66;;;22.23;42.48
32456;BME280;18912;43.270;27.942;2022-09-06T14:35:16;98712.69;;;22.27;40.85
32456;BME280;18912;43.270;27.942;2022-09-06T14:37:41;98715.59;;;22.05;40.15
32456;BME280;18912;43.270;27.942;2022-09-06T14:40:07;98701.69;;;21.80;41.80
32456;BME280;18912;43.270;27.942;2022-09-06T14:42:36;98694.72;;;21.73;42.79
32456;BME280;18912;43.270;27.942;2022-09-06T14:45:03;98697.84;;;21.81;42.30
32456;BME280;18912;43.270;27.942;2022-09-06T14:47:28;98696.22;;;21.90;41.64
32456;BME280;18912;43.270;27.942;2022-09-06T14:49:54;98692.91;;;21.88;42.67